sensor_id;sensor_type;location;lat;lon;timestamp;temperature;humidity
32534;DHT22;18973;48.580;8.912;2024-01-15T00:00:19;-1.00;99.90
32534;DHT22;18973;48.580;8.912;2024-01-15T00:02:45;-1.00;99.90
32534;DHT22;18973;48.580;8.912;2024-01-15T00:05:10;-0.90;99.90
32534;DHT22;18973;48.580;8.912;2024-01-15T00:07:36;-1.00;99.90
32534;DHT22;18973;48.580;8.912;2024-01-15T00:10:02;-1.00;99.90
32534;DHT22;18973;48.580;8.912;2024-01-15T00:12:28;-0.90;99.90
32534;DHT22;18973;48.580;8.912;2024-01-15T00:14:54;-0.90;99.90
32534;DHT22;18973;48.580;8.912;2024-01-15T00:17:19;-0.90;99.90
32534;DHT22;18973;48.580;8.912;2024-01-15T00:19:45;-0.90;99.90
32534;DHT22;18973;48.580;8.912;2024-01-15T00:22:11;-0.90;99.90
32534;DHT22;18973;48.580;8.912;2024-01-15T00:24:36;-1.00;99.90
32534;DHT22;18973;48.580;8.912;2024-01-15T00:27:02;-0.90;99.90
32534;DHT22;18973;48.580;8.912;2024-01-15T00:29:31;-0.90;99.90
32534;DHT22;18973;48.580;8.912;2024-01-15T00:31:57;-1.00;99.90
32534;DHT22;18973;48.580;8.912;2024-01-15T00:34:22;-1.00;99.90
32534;DHT22;18973;48.580;8.912;2024-01-15T00:36:48;-1.00;99.90
32534;DHT22;18973;48.580;8.912;2024-01-15T00:39:13;-1.00;99.90
32534;DHT22;18973;48.580;8.912;2024-01-15T00:41:39;-1.00;99.90
32534;DHT22;18973;48.580;8.912;2024-01-15T00:44:05;-1.10;99.90
32534;DHT22;18973;48.580;8.912;2024-01-15T00:46:30;-1.00;99.90
32534;DHT22;18973;48.580;8.912;2024-01-15T00:48:56;-1.00;99.90
32534;DHT22;18973;48.580;8.912;2024-01-15T00:51:22;-1.00;99.90
32534;DHT22;18973;48.580;8.912;2024-01-15T00:53:47;-0.90;99.90
32534;DHT22;18973;48.580;8.912;2024-01-15T00:56:13;-1.00;99.90
32534;DHT22;18973;48.580;8.912;2024-01-15T00:58:39;-0.90;99.90
32534;DHT22;18973;48.580;8.912;2024-01-15T01:01:04;-0.90;99.90
32534;DHT22;18973;48.580;8.912;2024-01-15T01:03:30;-0.80;99.90
32534;DHT22;18973;48.580;8.912;2024-01-15T01:05:56;-0.90;99.90
32534;DHT22;18973;48.580;8.912;2024-01-15T01:08:21;-0.80;99.90
32534;DHT22;18973;48.580;8.912;2024-01-15T01:10:47;-0.80;99.90
32534;DHT22;18973;48.580;8.912;2024-01-15T01:13:13;-0.80;99.90
32534;DHT22;18973;48.580;8.912;2024-01-15T01:15:39;-0.80;99.90
32534;DHT22;18973;48.580;8.912;2024-01-15T01:18:04;-0.80;99.90
32534;DHT22;18973;48.580;8.912;2024-01-15T01:20:30;-0.70;99.90
32534;DHT22;18973;48.580;8.912;2024-01-15T01:22:56;-0.70;99.90
32534;DHT22;18973;48.580;8.912;2024-01-15T01:25:21;-0.60;99.90
32534;DHT22;18973;48.580;8.912;2024-01-15T01:27:47;-0.60;99.90
32534;DHT22;18973;48.580;8.912;2024-01-15T01:30:13;-0.60;99.90
32534;DHT22;18973;48.580;8.912;2024-01-15T01:32:39;-0.50;99.90
32534;DHT22;18973;48.580;8.912;2024-01-15T01:35:05;-0.50;99.90
32534;DHT22;18973;48.580;8.912;2024-01-15T01:37:30;-0.30;99.90
32534;DHT22;18973;48.580;8.912;2024-01-15T01:39:56;-0.20;99.90
32534;DHT22;18973;48.580;8.912;2024-01-15T01:42:22;-0.10;99.90
32534;DHT22;18973;48.580;8.912;2024-01-15T01:44:47;-0.30;99.90
32534;DHT22;18973;48.580;8.912;2024-01-15T01:47:14;-0.30;99.90
32534;DHT22;18973;48.580;8.912;2024-01-15T01:49:40;-0.30;99.90
32534;DHT22;18973;48.580;8.912;2024-01-15T01:52:07;-0.20;99.90
32534;DHT22;18973;48.580;8.912;2024-01-15T01:54:34;-0.30;99.90
32534;DHT22;18973;48.580;8.912;2024-01-15T01:57:02;-0.30;99.90
32534;DHT22;18973;48.580;8.912;2024-01-15T01:59:28;-0.60;99.90
32534;DHT22;18973;48.580;8.912;2024-01-15T02:01:56;-0.70;99.90
32534;DHT22;18973;48.580;8.912;2024-01-15T02:04:25;-0.50;99.90
32534;DHT22;18973;48.580;8.912;2024-01-15T02:06:51;-0.40;99.90
32534;DHT22;18973;48.580;8.912;2024-01-15T02:09:18;-0.50;99.90
32534;DHT22;18973;48.580;8.912;2024-01-15T02:11:46;-0.60;99.90
32534;DHT22;18973;48.580;8.912;2024-01-15T02:14:12;-0.50;99.90
32534;DHT22;18973;48.580;8.912;2024-01-15T02:16:37;-0.60;99.90
32534;DHT22;18973;48.580;8.912;2024-01-15T02:19:03;-0.50;99.90
32534;DHT22;18973;48.580;8.912;2024-01-15T02:21:29;-0.50;99.90
32534;DHT22;18973;48.580;8.912;2024-01-15T02:23:55;-0.60;99.90
32534;DHT22;18973;48.580;8.912;2024-01-15T02:26:21;-0.60;99.90
32534;DHT22;18973;48.580;8.912;2024-01-15T02:28:48;-0.80;99.90
32534;DHT22;18973;48.580;8.912;2024-01-15T02:31:14;-0.80;99.90
32534;DHT22;18973;48.580;8.912;2024-01-15T02:33:39;-0.90;99.90
32534;DHT22;18973;48.580;8.912;2024-01-15T02:36:07;-0.80;99.90
32534;DHT22;18973;48.580;8.912;2024-01-15T02:38:33;-0.70;99.90
32534;DHT22;18973;48.580;8.912;2024-01-15T02:40:59;-0.70;99.90
32534;DHT22;18973;48.580;8.912;2024-01-15T02:43:24;-0.70;99.90
32534;DHT22;18973;48.580;8.912;2024-01-15T02:45:50;-0.70;99.90
32534;DHT22;18973;48.580;8.912;2024-01-15T02:48:16;-0.80;99.90
32534;DHT22;18973;48.580;8.912;2024-01-15T02:50:41;-0.90;99.90
32534;DHT22;18973;48.580;8.912;2024-01-15T02:53:07;-1.00;99.90
32534;DHT22;18973;48.580;8.912;2024-01-15T02:55:33;-0.90;99.90
32534;DHT22;18973;48.580;8.912;2024-01-15T02:57:59;-1.00;99.90
32534;DHT22;18973;48.580;8.912;2024-01-15T03:00:25;-1.00;99.90
32534;DHT22;18973;48.580;8.912;2024-01-15T03:02:51;-1.00;99.90
32534;DHT22;18973;48.580;8.912;2024-01-15T03:05:17;-1.00;99.90
32534;DHT22;18973;48.580;8.912;2024-01-15T03:07:43;-1.10;99.90
32534;DHT22;18973;48.580;8.912;2024-01-15T03:10:09;-1.10;99.90
32534;DHT22;18973;48.580;8.912;2024-01-15T03:12:35;-1.20;99.90
32534;DHT22;18973;48.580;8.912;2024-01-15T03:15:01;-1.20;99.90
32534;DHT22;18973;48.580;8.912;2024-01-15T03:17:27;-1.20;99.90
32534;DHT22;18973;48.580;8.912;2024-01-15T03:19:52;-1.10;99.90
32534;DHT22;18973;48.580;8.912;2024-01-15T03:22:18;-1.10;99.90
32534;DHT22;18973;48.580;8.912;2024-01-15T03:24:44;-1.00;99.90
32534;DHT22;18973;48.580;8.912;2024-01-15T03:27:10;-0.90;99.90
32534;DHT22;18973;48.580;8.912;2024-01-15T03:29:35;-0.90;99.90
32534;DHT22;18973;48.580;8.912;2024-01-15T03:32:01;-0.90;99.90
32534;DHT22;18973;48.580;8.912;2024-01-15T03:34:27;-0.80;99.90
32534;DHT22;18973;48.580;8.912;2024-01-15T03:36:52;-0.80;99.90
32534;DHT22;18973;48.580;8.912;2024-01-15T03:39:18;-0.70;99.90
32534;DHT22;18973;48.580;8.912;2024-01-15T03:41:44;-0.80;99.90
32534;DHT22;18973;48.580;8.912;2024-01-15T03:44:10;-0.80;99.90
32534;DHT22;18973;48.580;8.912;2024-01-15T03:46:36;-0.70;99.90
32534;DHT22;18973;48.580;8.912;2024-01-15T03:49:01;-0.70;99.90
32534;DHT22;18973;48.580;8.912;2024-01-15T03:51:27;-0.70;99.90
32534;DHT22;18973;48.580;8.912;2024-01-15T03:53:53;-0.70;99.90
32534;DHT22;18973;48.580;8.912;2024-01-15T03:56:19;-0.70;99.90
32534;DHT22;18973;48.580;8.912;2024-01-15T03:58:44;-0.70;99.90
32534;DHT22;18973;48.580;8.912;2024-01-15T04:01:10;-0.70;99.90
32534;DHT22;18973;48.580;8.912;2024-01-15T04:03:36;-0.60;99.90
32534;DHT22;18973;48.580;8.912;2024-01-15T04:06:03;-0.60;99.90
32534;DHT22;18973;48.580;8.912;2024-01-15T04:08:28;-0.60;99.90
32534;DHT22;18973;48.580;8.912;2024-01-15T04:10:54;-0.60;99.90
32534;DHT22;18973;48.580;8.912;2024-01-15T04:13:20;-0.60;99.90
32534;DHT22;18973;48.580;8.912;2024-01-15T04:15:46;-0.50;99.90
32534;DHT22;18973;48.580;8.912;2024-01-15T04:18:12;-0.50;99.90
32534;DHT22;18973;48.580;8.912;2024-01-15T04:20:37;-0.50;99.90
32534;DHT22;18973;48.580;8.912;2024-01-15T04:23:04;-0.50;99.90
32534;DHT22;18973;48.580;8.912;2024-01-15T04:25:30;-0.50;99.90
32534;DHT22;18973;48.580;8.912;2024-01-15T04:27:56;-0.60;99.90
32534;DHT22;18973;48.580;8.912;2024-01-15T04:30:22;-0.60;99.90
32534;DHT22;18973;48.580;8.912;2024-01-15T04:32:47;-0.60;99.90
32534;DHT22;18973;48.580;8.912;2024-01-15T04:35:13;-0.50;99.90
32534;DHT22;18973;48.580;8.912;2024-01-15T04:37:40;-0.50;99.90
32534;DHT22;18973;48.580;8.912;2024-01-15T04:40:06;-0.40;99.90
32534;DHT22;18973;48.580;8.912;2024-01-15T04:42:32;-0.40;99.90
32534;DHT22;18973;48.580;8.912;2024-01-15T04:44:58;-0.40;99.90
32534;DHT22;18973;48.580;8.912;2024-01-15T04:47:24;-0.50;99.90
32534;DHT22;18973;48.580;8.912;2024-01-15T04:49:49;-0.50;99.90
32534;DHT22;18973;48.580;8.912;2024-01-15T04:52:15;-0.40;99.90
32534;DHT22;18973;48.580;8.912;2024-01-15T04:54:41;-0.30;99.90
32534;DHT22;18973;48.580;8.912;2024-01-15T04:57:06;-0.20;99.90
32534;DHT22;18973;48.580;8.912;2024-01-15T04:59:32;-0.20;99.90
32534;DHT22;18973;48.580;8.912;2024-01-15T05:01:58;-0.20;99.90
32534;DHT22;18973;48.580;8.912;2024-01-15T05:04:23;-0.30;99.90
32534;DHT22;18973;48.580;8.912;2024-01-15T05:06:53;-0.30;99.90
32534;DHT22;18973;48.580;8.912;2024-01-15T05:09:18;-0.30;99.90
32534;DHT22;18973;48.580;8.912;2024-01-15T05:11:44;-0.30;99.90
32534;DHT22;18973;48.580;8.912;2024-01-15T05:14:10;-0.20;99.90
32534;DHT22;18973;48.580;8.912;2024-01-15T05:16:38;-0.20;99.90
32534;DHT22;18973;48.580;8.912;2024-01-15T05:19:04;-0.10;99.90
32534;DHT22;18973;48.580;8.912;2024-01-15T05:21:29;-0.10;99.90
32534;DHT22;18973;48.580;8.912;2024-01-15T05:23:55;-0.10;99.90
32534;DHT22;18973;48.580;8.912;2024-01-15T05:26:21;-0.10;99.90
32534;DHT22;18973;48.580;8.912;2024-01-15T05:28:46;0.00;99.90
32534;DHT22;18973;48.580;8.912;2024-01-15T05:31:12;0.10;99.90
32534;DHT22;18973;48.580;8.912;2024-01-15T05:33:38;0.00;99.90
32534;DHT22;18973;48.580;8.912;2024-01-15T05:36:03;0.00;99.90
32534;DHT22;18973;48.580;8.912;2024-01-15T05:38:29;0.10;99.90
32534;DHT22;18973;48.580;8.912;2024-01-15T05:40:55;0.00;99.90
32534;DHT22;18973;48.580;8.912;2024-01-15T05:43:21;0.10;99.90
32534;DHT22;18973;48.580;8.912;2024-01-15T05:45:46;0.10;99.90
32534;DHT22;18973;48.580;8.912;2024-01-15T05:48:12;0.00;99.90
32534;DHT22;18973;48.580;8.912;2024-01-15T05:50:39;0.00;99.90
32534;DHT22;18973;48.580;8.912;2024-01-15T05:53:04;0.10;99.90
32534;DHT22;18973;48.580;8.912;2024-01-15T05:55:30;0.00;99.90
32534;DHT22;18973;48.580;8.912;2024-01-15T05:57:56;0.00;99.90
32534;DHT22;18973;48.580;8.912;2024-01-15T06:00:22;0.00;99.90
32534;DHT22;18973;48.580;8.912;2024-01-15T06:02:47;0.00;99.90
32534;DHT22;18973;48.580;8.912;2024-01-15T06:05:13;0.00;99.90
32534;DHT22;18973;48.580;8.912;2024-01-15T06:07:39;0.00;99.90
32534;DHT22;18973;48.580;8.912;2024-01-15T06:10:05;0.00;99.90
32534;DHT22;18973;48.580;8.912;2024-01-15T06:12:31;-0.10;99.90
32534;DHT22;18973;48.580;8.912;2024-01-15T06:14:58;0.00;99.90
32534;DHT22;18973;48.580;8.912;2024-01-15T06:17:23;-0.10;99.90
32534;DHT22;18973;48.580;8.912;2024-01-15T06:19:52;0.00;99.90
32534;DHT22;18973;48.580;8.912;2024-01-15T06:22:17;-0.20;99.90
32534;DHT22;18973;48.580;8.912;2024-01-15T06:24:43;-0.20;99.90
32534;DHT22;18973;48.580;8.912;2024-01-15T06:27:09;-0.10;99.90
32534;DHT22;18973;48.580;8.912;2024-01-15T06:29:37;-0.10;99.90
32534;DHT22;18973;48.580;8.912;2024-01-15T06:32:03;-0.10;99.90
32534;DHT22;18973;48.580;8.912;2024-01-15T06:34:29;-0.10;99.90
32534;DHT22;18973;48.580;8.912;2024-01-15T06:36:55;-0.20;99.90
32534;DHT22;18973;48.580;8.912;2024-01-15T06:39:21;-0.10;99.90
32534;DHT22;18973;48.580;8.912;2024-01-15T06:41:46;-0.10;99.90
32534;DHT22;18973;48.580;8.912;2024-01-15T06:44:12;-0.10;99.90
32534;DHT22;18973;48.580;8.912;2024-01-15T06:46:44;-0.10;99.90
32534;DHT22;18973;48.580;8.912;2024-01-15T06:49:10;0.00;99.90
32534;DHT22;18973;48.580;8.912;2024-01-15T06:51:36;-0.10;99.90
32534;DHT22;18973;48.580;8.912;2024-01-15T06:54:01;-0.10;99.90
32534;DHT22;18973;48.580;8.912;2024-01-15T06:56:27;-0.10;99.90
32534;DHT22;18973;48.580;8.912;2024-01-15T06:58:53;0.00;99.90
32534;DHT22;18973;48.580;8.912;2024-01-15T07:01:18;0.00;99.90
32534;DHT22;18973;48.580;8.912;2024-01-15T07:03:44;0.10;99.90
32534;DHT22;18973;48.580;8.912;2024-01-15T07:06:11;0.10;99.90
32534;DHT22;18973;48.580;8.912;2024-01-15T07:08:37;-0.10;99.90
32534;DHT22;18973;48.580;8.912;2024-01-15T07:11:06;0.10;99.90
32534;DHT22;18973;48.580;8.912;2024-01-15T07:13:32;0.00;99.90
32534;DHT22;18973;48.580;8.912;2024-01-15T07:15:58;0.10;99.90
32534;DHT22;18973;48.580;8.912;2024-01-15T07:18:24;-0.10;99.90
32534;DHT22;18973;48.580;8.912;2024-01-15T07:20:50;-0.10;99.90
32534;DHT22;18973;48.580;8.912;2024-01-15T07:23:16;-0.10;99.90
32534;DHT22;18973;48.580;8.912;2024-01-15T07:25:43;0.00;99.90
32534;DHT22;18973;48.580;8.912;2024-01-15T07:28:09;0.00;99.90
32534;DHT22;18973;48.580;8.912;2024-01-15T07:30:34;0.00;99.90
32534;DHT22;18973;48.580;8.912;2024-01-15T07:33:00;-0.10;99.90
32534;DHT22;18973;48.580;8.912;2024-01-15T07:35:26;-0.10;99.90
32534;DHT22;18973;48.580;8.912;2024-01-15T07:37:52;0.00;99.90
32534;DHT22;18973;48.580;8.912;2024-01-15T07:40:18;0.00;99.90
32534;DHT22;18973;48.580;8.912;2024-01-15T07:42:44;0.00;99.90
32534;DHT22;18973;48.580;8.912;2024-01-15T07:45:10;0.00;99.90
32534;DHT22;18973;48.580;8.912;2024-01-15T07:47:36;0.20;99.90
32534;DHT22;18973;48.580;8.912;2024-01-15T07:50:02;0.20;99.90
32534;DHT22;18973;48.580;8.912;2024-01-15T07:52:27;0.20;99.90
32534;DHT22;18973;48.580;8.912;2024-01-15T07:54:53;0.10;99.90
32534;DHT22;18973;48.580;8.912;2024-01-15T07:57:19;0.00;99.90
32534;DHT22;18973;48.580;8.912;2024-01-15T07:59:46;0.00;99.90
32534;DHT22;18973;48.580;8.912;2024-01-15T08:02:11;0.10;99.90
32534;DHT22;18973;48.580;8.912;2024-01-15T08:04:37;0.10;99.90
32534;DHT22;18973;48.580;8.912;2024-01-15T08:07:06;0.10;99.90
32534;DHT22;18973;48.580;8.912;2024-01-15T08:09:33;0.10;99.90
32534;DHT22;18973;48.580;8.912;2024-01-15T08:11:59;0.20;99.90
32534;DHT22;18973;48.580;8.912;2024-01-15T08:14:25;0.20;99.90
32534;DHT22;18973;48.580;8.912;2024-01-15T08:16:50;0.30;99.90
32534;DHT22;18973;48.580;8.912;2024-01-15T08:19:16;0.30;99.90
32534;DHT22;18973;48.580;8.912;2024-01-15T08:21:42;0.40;99.90
32534;DHT22;18973;48.580;8.912;2024-01-15T08:24:08;0.30;99.90
32534;DHT22;18973;48.580;8.912;2024-01-15T08:26:34;0.30;99.90
32534;DHT22;18973;48.580;8.912;2024-01-15T08:28:59;0.30;99.90
32534;DHT22;18973;48.580;8.912;2024-01-15T08:31:25;0.30;99.90
32534;DHT22;18973;48.580;8.912;2024-01-15T08:33:51;0.30;99.90
32534;DHT22;18973;48.580;8.912;2024-01-15T08:36:17;0.20;99.90
32534;DHT22;18973;48.580;8.912;2024-01-15T08:38:43;0.20;99.90
32534;DHT22;18973;48.580;8.912;2024-01-15T08:41:08;0.30;99.90
32534;DHT22;18973;48.580;8.912;2024-01-15T08:43:37;0.30;99.90
32534;DHT22;18973;48.580;8.912;2024-01-15T08:46:03;0.30;99.90
32534;DHT22;18973;48.580;8.912;2024-01-15T08:48:29;0.30;99.90
32534;DHT22;18973;48.580;8.912;2024-01-15T08:50:55;0.40;99.90
32534;DHT22;18973;48.580;8.912;2024-01-15T08:53:22;0.50;99.90
32534;DHT22;18973;48.580;8.912;2024-01-15T08:55:47;0.50;99.90
32534;DHT22;18973;48.580;8.912;2024-01-15T08:58:13;0.50;99.90
32534;DHT22;18973;48.580;8.912;2024-01-15T09:00:39;0.50;99.90
32534;DHT22;18973;48.580;8.912;2024-01-15T09:03:05;0.50;99.90
32534;DHT22;18973;48.580;8.912;2024-01-15T09:05:31;0.60;99.90
32534;DHT22;18973;48.580;8.912;2024-01-15T09:07:57;0.60;99.90
32534;DHT22;18973;48.580;8.912;2024-01-15T09:10:22;0.70;99.90
32534;DHT22;18973;48.580;8.912;2024-01-15T09:12:48;0.70;99.90
32534;DHT22;18973;48.580;8.912;2024-01-15T09:15:16;0.70;99.90
32534;DHT22;18973;48.580;8.912;2024-01-15T09:17:42;0.80;99.90
32534;DHT22;18973;48.580;8.912;2024-01-15T09:20:09;0.80;99.90
32534;DHT22;18973;48.580;8.912;2024-01-15T09:22:35;0.90;99.90
32534;DHT22;18973;48.580;8.912;2024-01-15T09:25:03;0.90;99.90
32534;DHT22;18973;48.580;8.912;2024-01-15T09:27:29;0.90;99.90
32534;DHT22;18973;48.580;8.912;2024-01-15T09:29:55;0.90;99.90
32534;DHT22;18973;48.580;8.912;2024-01-15T09:32:21;1.10;99.90
32534;DHT22;18973;48.580;8.912;2024-01-15T09:34:47;1.00;99.90
32534;DHT22;18973;48.580;8.912;2024-01-15T09:37:14;1.10;99.90
32534;DHT22;18973;48.580;8.912;2024-01-15T09:39:40;1.10;99.90
32534;DHT22;18973;48.580;8.912;2024-01-15T09:42:06;1.10;99.90
32534;DHT22;18973;48.580;8.912;2024-01-15T09:44:32;1.10;99.90
32534;DHT22;18973;48.580;8.912;2024-01-15T09:46:58;1.00;99.90
32534;DHT22;18973;48.580;8.912;2024-01-15T09:49:25;1.10;99.90
32534;DHT22;18973;48.580;8.912;2024-01-15T09:51:51;1.20;99.90
32534;DHT22;18973;48.580;8.912;2024-01-15T09:54:17;1.20;99.90
32534;DHT22;18973;48.580;8.912;2024-01-15T09:56:46;1.20;99.90
32534;DHT22;18973;48.580;8.912;2024-01-15T09:59:15;1.30;99.90
32534;DHT22;18973;48.580;8.912;2024-01-15T10:01:42;1.20;99.90
32534;DHT22;18973;48.580;8.912;2024-01-15T10:04:12;1.30;99.90
32534;DHT22;18973;48.580;8.912;2024-01-15T10:06:39;1.30;99.90
32534;DHT22;18973;48.580;8.912;2024-01-15T10:09:07;1.20;99.90
32534;DHT22;18973;48.580;8.912;2024-01-15T10:11:33;1.20;99.90
32534;DHT22;18973;48.580;8.912;2024-01-15T10:13:59;1.10;99.90
32534;DHT22;18973;48.580;8.912;2024-01-15T10:16:26;1.20;99.90
32534;DHT22;18973;48.580;8.912;2024-01-15T10:18:51;1.20;99.90
32534;DHT22;18973;48.580;8.912;2024-01-15T10:21:17;1.30;99.90
32534;DHT22;18973;48.580;8.912;2024-01-15T10:23:43;1.20;99.90
32534;DHT22;18973;48.580;8.912;2024-01-15T10:26:09;1.30;99.90
32534;DHT22;18973;48.580;8.912;2024-01-15T10:28:37;1.30;99.90
32534;DHT22;18973;48.580;8.912;2024-01-15T10:31:03;1.30;99.90
32534;DHT22;18973;48.580;8.912;2024-01-15T10:33:30;1.40;99.90
32534;DHT22;18973;48.580;8.912;2024-01-15T10:35:58;1.40;99.90
32534;DHT22;18973;48.580;8.912;2024-01-15T10:38:25;1.40;99.90
32534;DHT22;18973;48.580;8.912;2024-01-15T10:40:55;1.40;99.90
32534;DHT22;18973;48.580;8.912;2024-01-15T10:43:21;1.40;99.90
32534;DHT22;18973;48.580;8.912;2024-01-15T10:45:49;1.40;99.90
32534;DHT22;18973;48.580;8.912;2024-01-15T10:48:17;1.40;99.90
32534;DHT22;18973;48.580;8.912;2024-01-15T10:50:46;1.40;99.90
32534;DHT22;18973;48.580;8.912;2024-01-15T10:53:15;1.30;99.90
32534;DHT22;18973;48.580;8.912;2024-01-15T10:55:41;1.30;99.90
32534;DHT22;18973;48.580;8.912;2024-01-15T10:58:09;1.30;99.90
32534;DHT22;18973;48.580;8.912;2024-01-15T11:00:36;1.30;99.90
32534;DHT22;18973;48.580;8.912;2024-01-15T11:03:03;1.30;99.90
32534;DHT22;18973;48.580;8.912;2024-01-15T11:05:36;1.20;99.90
32534;DHT22;18973;48.580;8.912;2024-01-15T11:08:02;1.30;99.90
32534;DHT22;18973;48.580;8.912;2024-01-15T11:10:41;1.40;99.90
32534;DHT22;18973;48.580;8.912;2024-01-15T11:18:21;1.30;99.90
32534;DHT22;18973;48.580;8.912;2024-01-15T11:23:53;1.30;99.90
32534;DHT22;18973;48.580;8.912;2024-01-15T11:29:00;1.40;99.90
32534;DHT22;18973;48.580;8.912;2024-01-15T11:31:30;1.30;99.90
32534;DHT22;18973;48.580;8.912;2024-01-15T11:34:15;1.40;99.90
32534;DHT22;18973;48.580;8.912;2024-01-15T11:37:01;1.30;99.90
32534;DHT22;18973;48.580;8.912;2024-01-15T11:41:58;1.40;99.90
32534;DHT22;18973;48.580;8.912;2024-01-15T11:44:23;1.40;99.90
32534;DHT22;18973;48.580;8.912;2024-01-15T11:47:00;1.40;99.90
32534;DHT22;18973;48.580;8.912;2024-01-15T11:52:04;1.30;99.90
32534;DHT22;18973;48.580;8.912;2024-01-15T11:54:33;1.30;99.90
32534;DHT22;18973;48.580;8.912;2024-01-15T11:57:06;1.20;99.90
32534;DHT22;18973;48.580;8.912;2024-01-15T11:59:34;1.20;99.90
32534;DHT22;18973;48.580;8.912;2024-01-15T12:02:00;1.20;99.90
32534;DHT22;18973;48.580;8.912;2024-01-15T12:04:27;1.20;99.90
32534;DHT22;18973;48.580;8.912;2024-01-15T12:06:53;1.20;99.90
32534;DHT22;18973;48.580;8.912;2024-01-15T12:09:21;1.20;99.90
32534;DHT22;18973;48.580;8.912;2024-01-15T12:11:53;1.10;99.90
32534;DHT22;18973;48.580;8.912;2024-01-15T12:14:21;1.10;99.90
32534;DHT22;18973;48.580;8.912;2024-01-15T12:16:47;1.10;99.90
32534;DHT22;18973;48.580;8.912;2024-01-15T12:19:15;1.10;99.90
32534;DHT22;18973;48.580;8.912;2024-01-15T12:21:40;1.10;99.90
32534;DHT22;18973;48.580;8.912;2024-01-15T12:24:09;1.00;99.90
32534;DHT22;18973;48.580;8.912;2024-01-15T12:26:38;1.00;99.90
32534;DHT22;18973;48.580;8.912;2024-01-15T12:29:06;1.00;99.90
32534;DHT22;18973;48.580;8.912;2024-01-15T12:31:32;0.90;99.90
32534;DHT22;18973;48.580;8.912;2024-01-15T12:33:58;0.90;99.90
32534;DHT22;18973;48.580;8.912;2024-01-15T12:36:23;1.00;99.90
32534;DHT22;18973;48.580;8.912;2024-01-15T12:38:49;0.90;99.90
32534;DHT22;18973;48.580;8.912;2024-01-15T12:41:15;0.90;99.90
32534;DHT22;18973;48.580;8.912;2024-01-15T12:43:41;0.90;99.90
32534;DHT22;18973;48.580;8.912;2024-01-15T12:46:07;0.80;99.90
32534;DHT22;18973;48.580;8.912;2024-01-15T12:48:32;0.90;99.90
32534;DHT22;18973;48.580;8.912;2024-01-15T12:50:58;0.90;99.90
32534;DHT22;18973;48.580;8.912;2024-01-15T12:53:24;0.90;99.90
32534;DHT22;18973;48.580;8.912;2024-01-15T12:55:49;0.80;99.90
32534;DHT22;18973;48.580;8.912;2024-01-15T12:58:15;0.80;99.90
32534;DHT22;18973;48.580;8.912;2024-01-15T13:00:41;0.90;99.90
32534;DHT22;18973;48.580;8.912;2024-01-15T13:03:06;1.00;99.90
32534;DHT22;18973;48.580;8.912;2024-01-15T13:05:32;1.10;99.90
32534;DHT22;18973;48.580;8.912;2024-01-15T13:07:59;1.10;99.90
32534;DHT22;18973;48.580;8.912;2024-01-15T13:10:25;1.10;99.90
32534;DHT22;18973;48.580;8.912;2024-01-15T13:12:51;1.10;99.90
32534;DHT22;18973;48.580;8.912;2024-01-15T13:15:19;1.10;99.90
32534;DHT22;18973;48.580;8.912;2024-01-15T13:17:45;1.10;99.90
32534;DHT22;18973;48.580;8.912;2024-01-15T13:20:14;1.00;99.90
32534;DHT22;18973;48.580;8.912;2024-01-15T13:22:42;1.00;99.90
32534;DHT22;18973;48.580;8.912;2024-01-15T13:25:09;1.00;99.90
32534;DHT22;18973;48.580;8.912;2024-01-15T13:27:35;1.10;99.90
32534;DHT22;18973;48.580;8.912;2024-01-15T13:30:00;1.10;99.90
32534;DHT22;18973;48.580;8.912;2024-01-15T13:32:28;1.10;99.90
32534;DHT22;18973;48.580;8.912;2024-01-15T13:34:57;1.10;99.90
32534;DHT22;18973;48.580;8.912;2024-01-15T13:37:22;1.10;99.90
32534;DHT22;18973;48.580;8.912;2024-01-15T13:39:51;1.10;99.90
32534;DHT22;18973;48.580;8.912;2024-01-15T13:42:18;1.20;99.90
32534;DHT22;18973;48.580;8.912;2024-01-15T13:44:46;1.20;99.90
32534;DHT22;18973;48.580;8.912;2024-01-15T13:47:11;1.20;99.90
32534;DHT22;18973;48.580;8.912;2024-01-15T13:49:38;1.20;99.90
32534;DHT22;18973;48.580;8.912;2024-01-15T13:52:04;1.30;99.90
32534;DHT22;18973;48.580;8.912;2024-01-15T13:54:30;1.10;99.90
32534;DHT22;18973;48.580;8.912;2024-01-15T13:56:56;1.10;99.90
32534;DHT22;18973;48.580;8.912;2024-01-15T13:59:22;1.00;99.90
32534;DHT22;18973;48.580;8.912;2024-01-15T14:01:48;1.10;99.90
32534;DHT22;18973;48.580;8.912;2024-01-15T14:04:14;1.10;99.90
32534;DHT22;18973;48.580;8.912;2024-01-15T14:06:39;1.10;99.90
32534;DHT22;18973;48.580;8.912;2024-01-15T14:09:05;1.20;99.90
32534;DHT22;18973;48.580;8.912;2024-01-15T14:11:31;1.20;99.90
32534;DHT22;18973;48.580;8.912;2024-01-15T14:13:57;1.10;99.90
32534;DHT22;18973;48.580;8.912;2024-01-15T14:16:22;1.20;99.90
32534;DHT22;18973;48.580;8.912;2024-01-15T14:18:48;1.20;99.90
32534;DHT22;18973;48.580;8.912;2024-01-15T14:21:14;1.30;99.90
32534;DHT22;18973;48.580;8.912;2024-01-15T14:23:40;1.30;99.90
32534;DHT22;18973;48.580;8.912;2024-01-15T14:26:06;1.30;99.90
32534;DHT22;18973;48.580;8.912;2024-01-15T14:28:31;1.30;99.90
32534;DHT22;18973;48.580;8.912;2024-01-15T14:30:57;1.40;99.90
32534;DHT22;18973;48.580;8.912;2024-01-15T14:33:26;1.40;99.90
32534;DHT22;18973;48.580;8.912;2024-01-15T14:35:52;1.40;99.90
32534;DHT22;18973;48.580;8.912;2024-01-15T14:38:18;1.30;99.90
32534;DHT22;18973;48.580;8.912;2024-01-15T14:40:43;1.20;99.90
32534;DHT22;18973;48.580;8.912;2024-01-15T14:43:10;1.20;99.90
32534;DHT22;18973;48.580;8.912;2024-01-15T14:45:36;1.10;99.90
32534;DHT22;18973;48.580;8.912;2024-01-15T14:48:02;1.10;99.90
32534;DHT22;18973;48.580;8.912;2024-01-15T14:50:27;1.00;99.90
32534;DHT22;18973;48.580;8.912;2024-01-15T14:52:53;1.00;99.90
32534;DHT22;18973;48.580;8.912;2024-01-15T14:55:19;0.90;99.90
32534;DHT22;18973;48.580;8.912;2024-01-15T14:57:45;0.90;99.90
32534;DHT22;18973;48.580;8.912;2024-01-15T15:00:10;0.90;99.90
32534;DHT22;18973;48.580;8.912;2024-01-15T15:02:42;0.90;99.90
32534;DHT22;18973;48.580;8.912;2024-01-15T15:05:09;0.80;99.90
32534;DHT22;18973;48.580;8.912;2024-01-15T15:07:41;0.70;99.90
32534;DHT22;18973;48.580;8.912;2024-01-15T15:10:07;0.60;99.90
32534;DHT22;18973;48.580;8.912;2024-01-15T15:12:33;0.70;99.90
32534;DHT22;18973;48.580;8.912;2024-01-15T15:14:59;0.60;99.90
32534;DHT22;18973;48.580;8.912;2024-01-15T15:17:24;0.60;99.90
32534;DHT22;18973;48.580;8.912;2024-01-15T15:19:50;0.60;99.90
32534;DHT22;18973;48.580;8.912;2024-01-15T15:22:19;0.50;99.90
32534;DHT22;18973;48.580;8.912;2024-01-15T15:24:45;0.50;99.90
32534;DHT22;18973;48.580;8.912;2024-01-15T15:27:11;0.50;99.90
32534;DHT22;18973;48.580;8.912;2024-01-15T15:29:37;0.50;99.90
32534;DHT22;18973;48.580;8.912;2024-01-15T15:32:03;0.50;99.90
32534;DHT22;18973;48.580;8.912;2024-01-15T15:34:28;0.50;99.90
32534;DHT22;18973;48.580;8.912;2024-01-15T15:36:54;0.40;99.90
32534;DHT22;18973;48.580;8.912;2024-01-15T15:39:20;0.40;99.90
32534;DHT22;18973;48.580;8.912;2024-01-15T15:41:45;0.40;99.90
32534;DHT22;18973;48.580;8.912;2024-01-15T15:44:11;0.50;99.90
32534;DHT22;18973;48.580;8.912;2024-01-15T15:46:40;0.40;99.90
32534;DHT22;18973;48.580;8.912;2024-01-15T15:49:05;0.40;99.90